Double Eagle II Airport

Airport
ICAO code: 
KAEG
Summary
ICAO Region: 
NAM
Territory: 
Location: 
Albuquerque, New Mexico,
Coordinates: 
Aerial View: 
35° 9' 24.135" N, 106° 47' 45.041" W
Airport RE: 
Hot and High Operations
Metar
Observation
KAEG 040735Z AUTO 32004KT 10SM CLR 00/M07 A3022 RMK AO2 T00021072
Station
Albuquerque, Double Eagle II Airport
Date/Time
2021-12-04 07:35:00
Wind direction
320°
Wind speed
04 kts
Lowest cloud amount
n/a
Temperature
0.2°C
Dew point
-7.2°C
Humidity
57%
Weather condition
n/a

Description

Double Eagle II Airport is a public airport located 11 km northwest of the central business district of Albuquerque, a city in Bernalillo County, New Mexico.

Climatology

Hot Desert Climate (Köppen climate classification BWh) - Hot desert climates are typically found in the subtropics where there is unbroken sunshine for the whole year due to the stable descending air and high pressure, little or no precipitation. Maximum temperatures of 40°C to 45°C are not uncommon, particularly during the warmer months of the year. During colder periods of the year, night-time temperatures can drop to freezing or below due to the exceptional radiation loss under the clear skies. However, very rarely do temperatures drop far below freezing.

Runways

Designator Length Width Surface Rops
17/35 1828 30 ASP No/No
4/22 2256 30 ASP No/No
Airport map: 
Aerial View: 

SKYbrary Partners:

Safety knowledge contributed by: